sensor_id;sensor_type;location;lat;lon;timestamp;P1;durP1;ratioP1;P2;durP2;ratioP2
10122;SDS011;5101;49.038;8.710;2024-03-02T00:02:12;4.73;;;4.23;;
10122;SDS011;5101;49.038;8.710;2024-03-02T00:04:39;4.75;;;3.35;;
10122;SDS011;5101;49.038;8.710;2024-03-02T00:07:05;4.60;;;3.88;;
10122;SDS011;5101;49.038;8.710;2024-03-02T00:09:31;4.25;;;3.50;;
10122;SDS011;5101;49.038;8.710;2024-03-02T00:11:58;3.67;;;3.33;;
10122;SDS011;5101;49.038;8.710;2024-03-02T00:14:24;5.07;;;4.07;;
10122;SDS011;5101;49.038;8.710;2024-03-02T00:16:50;3.95;;;3.60;;
10122;SDS011;5101;49.038;8.710;2024-03-02T00:19:16;4.07;;;3.70;;
10122;SDS011;5101;49.038;8.710;2024-03-02T00:21:42;5.75;;;3.90;;
10122;SDS011;5101;49.038;8.710;2024-03-02T00:24:12;6.32;;;4.10;;
10122;SDS011;5101;49.038;8.710;2024-03-02T00:26:49;4.43;;;4.03;;
10122;SDS011;5101;49.038;8.710;2024-03-02T00:29:15;5.00;;;4.23;;
10122;SDS011;5101;49.038;8.710;2024-03-02T00:31:42;4.03;;;3.63;;
10122;SDS011;5101;49.038;8.710;2024-03-02T00:34:07;3.90;;;3.58;;
10122;SDS011;5101;49.038;8.710;2024-03-02T00:36:33;4.75;;;3.45;;
10122;SDS011;5101;49.038;8.710;2024-03-02T00:38:58;4.50;;;4.07;;
10122;SDS011;5101;49.038;8.710;2024-03-02T00:41:27;3.92;;;3.53;;
10122;SDS011;5101;49.038;8.710;2024-03-02T00:43:58;4.80;;;3.80;;
10122;SDS011;5101;49.038;8.710;2024-03-02T00:46:24;4.53;;;3.73;;
10122;SDS011;5101;49.038;8.710;2024-03-02T00:48:54;4.18;;;3.78;;
10122;SDS011;5101;49.038;8.710;2024-03-02T00:51:24;5.65;;;3.80;;
10122;SDS011;5101;49.038;8.710;2024-03-02T00:53:52;4.72;;;3.90;;
10122;SDS011;5101;49.038;8.710;2024-03-02T00:56:21;5.30;;;4.00;;
10122;SDS011;5101;49.038;8.710;2024-03-02T00:58:46;4.93;;;3.80;;
10122;SDS011;5101;49.038;8.710;2024-03-02T01:01:12;4.78;;;3.72;;
10122;SDS011;5101;49.038;8.710;2024-03-02T01:03:38;4.60;;;3.72;;
10122;SDS011;5101;49.038;8.710;2024-03-02T01:06:04;3.97;;;3.58;;
10122;SDS011;5101;49.038;8.710;2024-03-02T01:08:29;4.20;;;3.42;;
10122;SDS011;5101;49.038;8.710;2024-03-02T01:10:55;4.72;;;3.85;;
10122;SDS011;5101;49.038;8.710;2024-03-02T01:13:23;5.18;;;3.75;;
10122;SDS011;5101;49.038;8.710;2024-03-02T01:15:49;7.13;;;6.25;;
10122;SDS011;5101;49.038;8.710;2024-03-02T01:18:15;5.20;;;4.25;;
10122;SDS011;5101;49.038;8.710;2024-03-02T01:20:41;5.53;;;4.05;;
10122;SDS011;5101;49.038;8.710;2024-03-02T01:23:06;4.20;;;3.75;;
10122;SDS011;5101;49.038;8.710;2024-03-02T01:25:32;4.82;;;3.72;;
10122;SDS011;5101;49.038;8.710;2024-03-02T01:27:57;5.60;;;4.00;;
10122;SDS011;5101;49.038;8.710;2024-03-02T01:30:23;5.72;;;4.10;;
10122;SDS011;5101;49.038;8.710;2024-03-02T01:32:48;4.60;;;4.00;;
10122;SDS011;5101;49.038;8.710;2024-03-02T01:35:14;5.70;;;4.03;;
10122;SDS011;5101;49.038;8.710;2024-03-02T01:37:40;5.10;;;4.18;;
10122;SDS011;5101;49.038;8.710;2024-03-02T01:40:06;5.15;;;4.38;;
10122;SDS011;5101;49.038;8.710;2024-03-02T01:42:35;4.63;;;4.22;;
10122;SDS011;5101;49.038;8.710;2024-03-02T01:45:01;4.95;;;4.45;;
10122;SDS011;5101;49.038;8.710;2024-03-02T01:47:28;6.85;;;4.55;;
10122;SDS011;5101;49.038;8.710;2024-03-02T01:49:54;5.25;;;4.13;;
10122;SDS011;5101;49.038;8.710;2024-03-02T01:52:19;4.97;;;4.25;;
10122;SDS011;5101;49.038;8.710;2024-03-02T01:54:45;4.72;;;4.28;;
10122;SDS011;5101;49.038;8.710;2024-03-02T01:57:10;5.28;;;4.28;;
10122;SDS011;5101;49.038;8.710;2024-03-02T01:59:36;5.13;;;4.30;;
10122;SDS011;5101;49.038;8.710;2024-03-02T02:02:01;5.35;;;4.20;;
10122;SDS011;5101;49.038;8.710;2024-03-02T02:04:27;4.45;;;4.05;;
10122;SDS011;5101;49.038;8.710;2024-03-02T02:06:53;5.00;;;4.47;;
10122;SDS011;5101;49.038;8.710;2024-03-02T02:09:19;5.30;;;4.32;;
10122;SDS011;5101;49.038;8.710;2024-03-02T02:11:44;4.80;;;4.37;;
10122;SDS011;5101;49.038;8.710;2024-03-02T02:14:10;4.90;;;4.40;;
10122;SDS011;5101;49.038;8.710;2024-03-02T02:16:36;6.10;;;4.90;;
10122;SDS011;5101;49.038;8.710;2024-03-02T02:19:02;4.90;;;3.80;;
10122;SDS011;5101;49.038;8.710;2024-03-02T02:21:28;5.53;;;4.73;;
10122;SDS011;5101;49.038;8.710;2024-03-02T02:23:53;5.47;;;4.77;;
10122;SDS011;5101;49.038;8.710;2024-03-02T02:26:19;6.20;;;5.07;;
10122;SDS011;5101;49.038;8.710;2024-03-02T02:28:44;6.77;;;4.80;;
10122;SDS011;5101;49.038;8.710;2024-03-02T02:31:14;7.70;;;5.60;;
10122;SDS011;5101;49.038;8.710;2024-03-02T02:33:40;5.95;;;4.95;;
10122;SDS011;5101;49.038;8.710;2024-03-02T02:36:06;6.40;;;5.53;;
10122;SDS011;5101;49.038;8.710;2024-03-02T02:38:32;5.97;;;5.13;;
10122;SDS011;5101;49.038;8.710;2024-03-02T02:41:00;7.43;;;5.80;;
10122;SDS011;5101;49.038;8.710;2024-03-02T02:43:25;6.47;;;5.73;;
10122;SDS011;5101;49.038;8.710;2024-03-02T02:45:51;6.37;;;5.67;;
10122;SDS011;5101;49.038;8.710;2024-03-02T02:48:16;6.27;;;5.37;;
10122;SDS011;5101;49.038;8.710;2024-03-02T02:50:42;6.97;;;5.57;;
10122;SDS011;5101;49.038;8.710;2024-03-02T02:53:07;7.80;;;5.80;;
10122;SDS011;5101;49.038;8.710;2024-03-02T02:55:34;7.30;;;6.17;;
10122;SDS011;5101;49.038;8.710;2024-03-02T02:58:05;7.53;;;5.97;;
10122;SDS011;5101;49.038;8.710;2024-03-02T03:00:31;7.47;;;6.20;;
10122;SDS011;5101;49.038;8.710;2024-03-02T03:02:56;6.87;;;5.90;;
10122;SDS011;5101;49.038;8.710;2024-03-02T03:05:22;9.27;;;5.83;;
10122;SDS011;5101;49.038;8.710;2024-03-02T03:07:47;7.17;;;5.80;;
10122;SDS011;5101;49.038;8.710;2024-03-02T03:10:16;7.37;;;5.80;;
10122;SDS011;5101;49.038;8.710;2024-03-02T03:12:42;6.67;;;5.97;;
10122;SDS011;5101;49.038;8.710;2024-03-02T03:15:08;7.27;;;6.17;;
10122;SDS011;5101;49.038;8.710;2024-03-02T03:17:35;7.00;;;5.90;;
10122;SDS011;5101;49.038;8.710;2024-03-02T03:20:02;7.73;;;6.00;;
10122;SDS011;5101;49.038;8.710;2024-03-02T03:22:29;7.37;;;6.07;;
10122;SDS011;5101;49.038;8.710;2024-03-02T03:24:56;6.23;;;5.57;;
10122;SDS011;5101;49.038;8.710;2024-03-02T03:27:22;7.47;;;6.33;;
10122;SDS011;5101;49.038;8.710;2024-03-02T03:29:47;7.00;;;6.27;;
10122;SDS011;5101;49.038;8.710;2024-03-02T03:32:13;8.13;;;5.93;;
10122;SDS011;5101;49.038;8.710;2024-03-02T03:34:38;7.67;;;6.33;;
10122;SDS011;5101;49.038;8.710;2024-03-02T03:37:05;7.07;;;5.63;;
10122;SDS011;5101;49.038;8.710;2024-03-02T03:39:30;7.53;;;6.33;;
10122;SDS011;5101;49.038;8.710;2024-03-02T03:41:56;7.40;;;6.07;;
10122;SDS011;5101;49.038;8.710;2024-03-02T03:44:21;8.03;;;6.20;;
10122;SDS011;5101;49.038;8.710;2024-03-02T03:46:47;10.47;;;7.23;;
10122;SDS011;5101;49.038;8.710;2024-03-02T03:49:12;8.83;;;6.37;;
10122;SDS011;5101;49.038;8.710;2024-03-02T03:51:38;9.33;;;6.93;;
10122;SDS011;5101;49.038;8.710;2024-03-02T03:54:03;8.23;;;7.07;;
10122;SDS011;5101;49.038;8.710;2024-03-02T03:56:29;10.60;;;7.63;;
10122;SDS011;5101;49.038;8.710;2024-03-02T03:58:54;9.30;;;7.63;;
10122;SDS011;5101;49.038;8.710;2024-03-02T04:01:20;11.97;;;8.80;;
10122;SDS011;5101;49.038;8.710;2024-03-02T04:03:47;9.77;;;8.43;;
10122;SDS011;5101;49.038;8.710;2024-03-02T04:06:13;11.83;;;8.73;;
10122;SDS011;5101;49.038;8.710;2024-03-02T04:08:39;8.63;;;7.50;;
10122;SDS011;5101;49.038;8.710;2024-03-02T04:11:06;9.67;;;7.80;;
10122;SDS011;5101;49.038;8.710;2024-03-02T04:13:32;9.83;;;8.13;;
10122;SDS011;5101;49.038;8.710;2024-03-02T04:15:58;12.23;;;8.03;;
10122;SDS011;5101;49.038;8.710;2024-03-02T04:18:23;10.57;;;8.30;;
10122;SDS011;5101;49.038;8.710;2024-03-02T04:20:49;10.80;;;8.77;;
10122;SDS011;5101;49.038;8.710;2024-03-02T04:23:14;11.60;;;9.50;;
10122;SDS011;5101;49.038;8.710;2024-03-02T04:25:40;9.83;;;8.70;;
10122;SDS011;5101;49.038;8.710;2024-03-02T04:28:05;11.03;;;8.83;;
10122;SDS011;5101;49.038;8.710;2024-03-02T04:30:31;12.47;;;9.10;;
10122;SDS011;5101;49.038;8.710;2024-03-02T04:32:56;11.63;;;8.83;;
10122;SDS011;5101;49.038;8.710;2024-03-02T04:35:22;10.50;;;8.77;;
10122;SDS011;5101;49.038;8.710;2024-03-02T04:37:47;11.30;;;8.37;;
10122;SDS011;5101;49.038;8.710;2024-03-02T04:40:13;10.70;;;8.87;;
10122;SDS011;5101;49.038;8.710;2024-03-02T04:42:38;9.87;;;8.83;;
10122;SDS011;5101;49.038;8.710;2024-03-02T04:45:04;11.13;;;9.13;;
10122;SDS011;5101;49.038;8.710;2024-03-02T04:47:30;9.53;;;8.00;;
10122;SDS011;5101;49.038;8.710;2024-03-02T04:49:55;11.87;;;8.73;;
10122;SDS011;5101;49.038;8.710;2024-03-02T04:52:21;13.77;;;9.30;;
10122;SDS011;5101;49.038;8.710;2024-03-02T04:54:46;10.47;;;8.57;;
10122;SDS011;5101;49.038;8.710;2024-03-02T04:57:38;11.70;;;8.80;;
10122;SDS011;5101;49.038;8.710;2024-03-02T05:00:03;11.63;;;8.90;;
10122;SDS011;5101;49.038;8.710;2024-03-02T05:02:32;12.10;;;8.50;;
10122;SDS011;5101;49.038;8.710;2024-03-02T05:04:57;10.60;;;8.57;;
10122;SDS011;5101;49.038;8.710;2024-03-02T05:07:23;10.50;;;8.10;;
10122;SDS011;5101;49.038;8.710;2024-03-02T05:09:48;10.93;;;8.67;;
10122;SDS011;5101;49.038;8.710;2024-03-02T05:12:14;11.17;;;8.67;;
10122;SDS011;5101;49.038;8.710;2024-03-02T05:15:00;11.93;;;8.57;;
10122;SDS011;5101;49.038;8.710;2024-03-02T05:17:26;10.27;;;7.80;;
10122;SDS011;5101;49.038;8.710;2024-03-02T05:19:52;11.57;;;8.37;;
10122;SDS011;5101;49.038;8.710;2024-03-02T05:22:17;10.67;;;8.13;;
10122;SDS011;5101;49.038;8.710;2024-03-02T05:24:43;11.70;;;8.20;;
10122;SDS011;5101;49.038;8.710;2024-03-02T05:27:08;9.73;;;7.73;;
10122;SDS011;5101;49.038;8.710;2024-03-02T05:29:34;10.17;;;8.07;;
10122;SDS011;5101;49.038;8.710;2024-03-02T05:31:59;12.30;;;8.10;;
10122;SDS011;5101;49.038;8.710;2024-03-02T05:34:25;13.10;;;9.23;;
10122;SDS011;5101;49.038;8.710;2024-03-02T05:36:50;11.37;;;8.80;;
10122;SDS011;5101;49.038;8.710;2024-03-02T05:39:16;12.60;;;9.03;;
10122;SDS011;5101;49.038;8.710;2024-03-02T05:41:41;11.97;;;9.63;;
10122;SDS011;5101;49.038;8.710;2024-03-02T05:44:07;10.50;;;9.33;;
10122;SDS011;5101;49.038;8.710;2024-03-02T05:46:32;14.60;;;9.53;;
10122;SDS011;5101;49.038;8.710;2024-03-02T05:48:59;12.30;;;9.47;;
10122;SDS011;5101;49.038;8.710;2024-03-02T05:51:25;13.90;;;10.57;;
10122;SDS011;5101;49.038;8.710;2024-03-02T05:53:50;12.20;;;9.50;;
10122;SDS011;5101;49.038;8.710;2024-03-02T05:56:15;13.30;;;10.00;;
10122;SDS011;5101;49.038;8.710;2024-03-02T05:58:41;12.97;;;9.73;;
10122;SDS011;5101;49.038;8.710;2024-03-02T06:01:25;12.70;;;9.57;;
10122;SDS011;5101;49.038;8.710;2024-03-02T06:03:56;14.97;;;9.27;;
10122;SDS011;5101;49.038;8.710;2024-03-02T06:06:22;10.73;;;9.23;;
10122;SDS011;5101;49.038;8.710;2024-03-02T06:08:48;12.50;;;9.77;;
10122;SDS011;5101;49.038;8.710;2024-03-02T06:11:13;13.37;;;9.87;;
10122;SDS011;5101;49.038;8.710;2024-03-02T06:13:39;12.93;;;10.07;;
10122;SDS011;5101;49.038;8.710;2024-03-02T06:16:04;13.60;;;9.90;;
10122;SDS011;5101;49.038;8.710;2024-03-02T06:18:30;11.30;;;9.20;;
10122;SDS011;5101;49.038;8.710;2024-03-02T06:20:55;11.90;;;9.60;;
10122;SDS011;5101;49.038;8.710;2024-03-02T06:23:21;13.07;;;9.43;;
10122;SDS011;5101;49.038;8.710;2024-03-02T06:25:46;13.07;;;9.93;;
10122;SDS011;5101;49.038;8.710;2024-03-02T06:28:12;12.47;;;9.33;;
10122;SDS011;5101;49.038;8.710;2024-03-02T06:30:40;13.03;;;9.73;;
10122;SDS011;5101;49.038;8.710;2024-03-02T06:33:06;15.40;;;9.67;;
10122;SDS011;5101;49.038;8.710;2024-03-02T06:35:31;13.50;;;10.30;;
10122;SDS011;5101;49.038;8.710;2024-03-02T06:37:57;15.90;;;10.90;;
10122;SDS011;5101;49.038;8.710;2024-03-02T06:40:22;14.83;;;11.87;;
10122;SDS011;5101;49.038;8.710;2024-03-02T06:42:48;15.30;;;11.80;;
10122;SDS011;5101;49.038;8.710;2024-03-02T06:45:13;16.43;;;11.33;;
10122;SDS011;5101;49.038;8.710;2024-03-02T06:47:39;13.57;;;10.70;;
10122;SDS011;5101;49.038;8.710;2024-03-02T06:50:04;13.90;;;10.23;;
10122;SDS011;5101;49.038;8.710;2024-03-02T06:52:32;15.30;;;10.63;;
10122;SDS011;5101;49.038;8.710;2024-03-02T06:54:57;14.20;;;9.80;;
10122;SDS011;5101;49.038;8.710;2024-03-02T06:57:23;15.03;;;10.50;;
10122;SDS011;5101;49.038;8.710;2024-03-02T06:59:49;13.10;;;10.03;;
10122;SDS011;5101;49.038;8.710;2024-03-02T07:02:16;12.47;;;9.90;;
10122;SDS011;5101;49.038;8.710;2024-03-02T07:04:42;15.57;;;10.00;;
10122;SDS011;5101;49.038;8.710;2024-03-02T07:07:07;15.50;;;10.30;;
10122;SDS011;5101;49.038;8.710;2024-03-02T07:09:33;13.37;;;9.93;;
10122;SDS011;5101;49.038;8.710;2024-03-02T07:11:58;15.10;;;10.60;;
10122;SDS011;5101;49.038;8.710;2024-03-02T07:14:24;16.57;;;11.07;;
10122;SDS011;5101;49.038;8.710;2024-03-02T07:17:09;14.03;;;10.13;;
10122;SDS011;5101;49.038;8.710;2024-03-02T07:19:35;14.40;;;11.40;;
10122;SDS011;5101;49.038;8.710;2024-03-02T07:22:01;13.50;;;10.40;;
10122;SDS011;5101;49.038;8.710;2024-03-02T07:24:26;15.20;;;10.80;;
10122;SDS011;5101;49.038;8.710;2024-03-02T07:26:52;14.13;;;11.00;;
10122;SDS011;5101;49.038;8.710;2024-03-02T07:29:17;13.67;;;10.33;;
10122;SDS011;5101;49.038;8.710;2024-03-02T07:31:43;13.63;;;10.40;;
10122;SDS011;5101;49.038;8.710;2024-03-02T07:34:09;14.67;;;9.93;;
10122;SDS011;5101;49.038;8.710;2024-03-02T07:36:34;13.27;;;10.20;;
10122;SDS011;5101;49.038;8.710;2024-03-02T07:39:01;16.00;;;11.40;;
10122;SDS011;5101;49.038;8.710;2024-03-02T07:41:27;14.43;;;11.00;;
10122;SDS011;5101;49.038;8.710;2024-03-02T07:43:52;14.77;;;11.20;;
10122;SDS011;5101;49.038;8.710;2024-03-02T07:46:18;16.27;;;10.63;;
10122;SDS011;5101;49.038;8.710;2024-03-02T07:48:43;12.25;;;9.88;;
10122;SDS011;5101;49.038;8.710;2024-03-02T07:51:09;14.87;;;10.10;;
10122;SDS011;5101;49.038;8.710;2024-03-02T07:53:34;13.95;;;9.70;;
10122;SDS011;5101;49.038;8.710;2024-03-02T07:56:01;14.90;;;8.82;;
10122;SDS011;5101;49.038;8.710;2024-03-02T07:58:27;12.35;;;8.65;;
10122;SDS011;5101;49.038;8.710;2024-03-02T08:00:54;13.38;;;9.27;;
10122;SDS011;5101;49.038;8.710;2024-03-02T08:03:19;13.43;;;8.70;;
10122;SDS011;5101;49.038;8.710;2024-03-02T08:05:45;15.18;;;9.18;;
10122;SDS011;5101;49.038;8.710;2024-03-02T08:08:11;13.20;;;8.73;;
10122;SDS011;5101;49.038;8.710;2024-03-02T08:10:36;10.48;;;7.68;;
10122;SDS011;5101;49.038;8.710;2024-03-02T08:13:02;15.88;;;7.80;;
10122;SDS011;5101;49.038;8.710;2024-03-02T08:15:28;10.90;;;7.28;;
10122;SDS011;5101;49.038;8.710;2024-03-02T08:17:53;11.20;;;7.45;;
10122;SDS011;5101;49.038;8.710;2024-03-02T08:20:18;8.18;;;7.07;;
10122;SDS011;5101;49.038;8.710;2024-03-02T08:22:44;9.90;;;6.32;;
10122;SDS011;5101;49.038;8.710;2024-03-02T08:25:10;8.38;;;6.30;;
10122;SDS011;5101;49.038;8.710;2024-03-02T08:27:36;9.75;;;5.85;;
10122;SDS011;5101;49.038;8.710;2024-03-02T08:30:01;9.23;;;6.35;;
10122;SDS011;5101;49.038;8.710;2024-03-02T08:32:31;6.10;;;5.50;;
10122;SDS011;5101;49.038;8.710;2024-03-02T08:34:56;5.88;;;5.28;;
10122;SDS011;5101;49.038;8.710;2024-03-02T08:37:22;6.55;;;5.65;;
10122;SDS011;5101;49.038;8.710;2024-03-02T08:39:47;5.25;;;4.72;;
10122;SDS011;5101;49.038;8.710;2024-03-02T08:42:13;7.13;;;4.18;;
10122;SDS011;5101;49.038;8.710;2024-03-02T08:44:39;5.50;;;4.60;;
10122;SDS011;5101;49.038;8.710;2024-03-02T08:47:04;4.95;;;4.45;;
10122;SDS011;5101;49.038;8.710;2024-03-02T08:49:30;5.25;;;4.78;;
10122;SDS011;5101;49.038;8.710;2024-03-02T08:51:55;5.22;;;4.72;;
10122;SDS011;5101;49.038;8.710;2024-03-02T08:54:21;5.90;;;4.00;;
10122;SDS011;5101;49.038;8.710;2024-03-02T08:56:47;4.70;;;4.22;;
10122;SDS011;5101;49.038;8.710;2024-03-02T08:59:13;8.80;;;4.20;;
10122;SDS011;5101;49.038;8.710;2024-03-02T09:01:39;4.32;;;3.92;;
10122;SDS011;5101;49.038;8.710;2024-03-02T09:04:06;4.30;;;3.92;;
10122;SDS011;5101;49.038;8.710;2024-03-02T09:06:33;5.80;;;4.28;;
10122;SDS011;5101;49.038;8.710;2024-03-02T09:08:59;4.30;;;3.90;;
10122;SDS011;5101;49.038;8.710;2024-03-02T09:11:24;4.28;;;3.88;;
10122;SDS011;5101;49.038;8.710;2024-03-02T09:13:50;4.75;;;4.35;;
10122;SDS011;5101;49.038;8.710;2024-03-02T09:16:16;4.13;;;3.83;;
10122;SDS011;5101;49.038;8.710;2024-03-02T09:18:41;4.22;;;3.90;;
10122;SDS011;5101;49.038;8.710;2024-03-02T09:21:07;4.22;;;3.83;;
10122;SDS011;5101;49.038;8.710;2024-03-02T09:23:33;4.07;;;3.72;;
10122;SDS011;5101;49.038;8.710;2024-03-02T09:25:59;3.90;;;3.60;;
10122;SDS011;5101;49.038;8.710;2024-03-02T09:28:24;4.07;;;3.67;;
10122;SDS011;5101;49.038;8.710;2024-03-02T09:30:50;3.90;;;3.28;;
10122;SDS011;5101;49.038;8.710;2024-03-02T09:33:15;3.85;;;3.55;;
10122;SDS011;5101;49.038;8.710;2024-03-02T09:35:41;3.65;;;3.35;;
10122;SDS011;5101;49.038;8.710;2024-03-02T09:38:06;6.32;;;3.90;;
10122;SDS011;5101;49.038;8.710;2024-03-02T09:40:32;3.83;;;3.45;;
10122;SDS011;5101;49.038;8.710;2024-03-02T09:42:57;4.05;;;3.60;;
10122;SDS011;5101;49.038;8.710;2024-03-02T09:45:24;3.75;;;3.13;;
10122;SDS011;5101;49.038;8.710;2024-03-02T09:47:50;4.18;;;3.33;;
10122;SDS011;5101;49.038;8.710;2024-03-02T09:50:16;5.45;;;3.38;;
10122;SDS011;5101;49.038;8.710;2024-03-02T09:52:42;5.85;;;3.25;;
10122;SDS011;5101;49.038;8.710;2024-03-02T09:55:08;3.33;;;3.05;;
10122;SDS011;5101;49.038;8.710;2024-03-02T09:57:34;3.42;;;3.22;;
10122;SDS011;5101;49.038;8.710;2024-03-02T10:00:00;6.82;;;3.53;;
10122;SDS011;5101;49.038;8.710;2024-03-02T10:02:26;3.25;;;2.95;;
10122;SDS011;5101;49.038;8.710;2024-03-02T10:04:51;2.80;;;2.60;;
10122;SDS011;5101;49.038;8.710;2024-03-02T10:07:18;3.40;;;3.10;;
10122;SDS011;5101;49.038;8.710;2024-03-02T10:09:44;3.35;;;3.15;;
10122;SDS011;5101;49.038;8.710;2024-03-02T10:12:12;3.42;;;3.15;;
10122;SDS011;5101;49.038;8.710;2024-03-02T10:14:40;3.00;;;2.80;;
10122;SDS011;5101;49.038;8.710;2024-03-02T10:17:06;4.82;;;3.10;;
10122;SDS011;5101;49.038;8.710;2024-03-02T10:19:33;2.70;;;2.42;;
10122;SDS011;5101;49.038;8.710;2024-03-02T10:22:00;3.25;;;2.47;;
10122;SDS011;5101;49.038;8.710;2024-03-02T10:24:27;2.58;;;2.38;;
10122;SDS011;5101;49.038;8.710;2024-03-02T10:26:59;2.50;;;2.25;;
10122;SDS011;5101;49.038;8.710;2024-03-02T10:29:25;3.30;;;1.98;;
10122;SDS011;5101;49.038;8.710;2024-03-02T10:31:54;11.57;;;3.42;;
10122;SDS011;5101;49.038;8.710;2024-03-02T10:34:21;2.17;;;2.03;;
10122;SDS011;5101;49.038;8.710;2024-03-02T10:36:46;1.90;;;1.80;;
10122;SDS011;5101;49.038;8.710;2024-03-02T10:39:13;2.97;;;2.28;;
10122;SDS011;5101;49.038;8.710;2024-03-02T10:41:39;2.28;;;2.17;;
10122;SDS011;5101;49.038;8.710;2024-03-02T10:44:06;3.03;;;2.72;;
10122;SDS011;5101;49.038;8.710;2024-03-02T10:46:33;2.72;;;2.50;;
10122;SDS011;5101;49.038;8.710;2024-03-02T10:49:00;2.17;;;2.00;;
10122;SDS011;5101;49.038;8.710;2024-03-02T10:51:27;2.08;;;1.88;;
10122;SDS011;5101;49.038;8.710;2024-03-02T10:53:56;2.28;;;1.60;;
10122;SDS011;5101;49.038;8.710;2024-03-02T10:56:41;1.63;;;1.52;;
10122;SDS011;5101;49.038;8.710;2024-03-02T11:01:59;2.50;;;1.10;;
10122;SDS011;5101;49.038;8.710;2024-03-02T11:04:26;1.02;;;1.02;;
10122;SDS011;5101;49.038;8.710;2024-03-02T11:06:54;3.63;;;0.80;;
10122;SDS011;5101;49.038;8.710;2024-03-02T11:09:33;0.63;;;0.63;;
10122;SDS011;5101;49.038;8.710;2024-03-02T11:14:27;0.60;;;0.60;;
10122;SDS011;5101;49.038;8.710;2024-03-02T11:16:57;7.50;;;1.02;;
10122;SDS011;5101;49.038;8.710;2024-03-02T11:19:23;1.40;;;0.80;;
10122;SDS011;5101;49.038;8.710;2024-03-02T11:21:50;4.57;;;0.80;;
10122;SDS011;5101;49.038;8.710;2024-03-02T11:26:57;2.72;;;0.80;;
10122;SDS011;5101;49.038;8.710;2024-03-02T11:32:44;2.00;;;0.60;;
10122;SDS011;5101;49.038;8.710;2024-03-02T11:34:50;2.90;;;0.75;;
10122;SDS011;5101;49.038;8.710;2024-03-02T11:37:17;2.03;;;1.20;;
10122;SDS011;5101;49.038;8.710;2024-03-02T11:39:45;3.33;;;0.75;;
10122;SDS011;5101;49.038;8.710;2024-03-02T11:42:12;0.93;;;0.60;;
10122;SDS011;5101;49.038;8.710;2024-03-02T11:44:42;3.20;;;1.00;;
10122;SDS011;5101;49.038;8.710;2024-03-02T11:47:10;1.33;;;1.17;;
10122;SDS011;5101;49.038;8.710;2024-03-02T11:49:43;1.25;;;1.15;;
10122;SDS011;5101;49.038;8.710;2024-03-02T11:52:11;15.95;;;2.20;;
10122;SDS011;5101;49.038;8.710;2024-03-02T11:54:42;3.13;;;1.40;;
10122;SDS011;5101;49.038;8.710;2024-03-02T11:57:11;0.80;;;0.80;;
10122;SDS011;5101;49.038;8.710;2024-03-02T11:59:41;2.22;;;1.60;;
10122;SDS011;5101;49.038;8.710;2024-03-02T12:02:12;0.80;;;0.80;;
10122;SDS011;5101;49.038;8.710;2024-03-02T12:04:40;1.13;;;0.70;;
10122;SDS011;5101;49.038;8.710;2024-03-02T12:07:06;1.40;;;0.75;;
10122;SDS011;5101;49.038;8.710;2024-03-02T12:09:33;1.38;;;1.10;;
10122;SDS011;5101;49.038;8.710;2024-03-02T12:12:03;1.98;;;1.00;;
10122;SDS011;5101;49.038;8.710;2024-03-02T12:14:32;1.40;;;1.30;;
10122;SDS011;5101;49.038;8.710;2024-03-02T12:16:59;1.70;;;1.10;;
10122;SDS011;5101;49.038;8.710;2024-03-02T12:19:26;1.65;;;1.55;;
10122;SDS011;5101;49.038;8.710;2024-03-02T12:21:52;1.02;;;1.02;;
10122;SDS011;5101;49.038;8.710;2024-03-02T12:24:18;3.03;;;1.23;;
10122;SDS011;5101;49.038;8.710;2024-03-02T12:26:44;3.22;;;1.25;;
10122;SDS011;5101;49.038;8.710;2024-03-02T12:29:09;8.63;;;1.67;;
10122;SDS011;5101;49.038;8.710;2024-03-02T12:31:35;5.07;;;1.30;;
10122;SDS011;5101;49.038;8.710;2024-03-02T12:34:02;1.45;;;1.20;;
10122;SDS011;5101;49.038;8.710;2024-03-02T12:36:29;5.50;;;1.15;;
10122;SDS011;5101;49.038;8.710;2024-03-02T12:38:54;2.15;;;0.98;;
10122;SDS011;5101;49.038;8.710;2024-03-02T12:41:20;1.30;;;1.20;;
10122;SDS011;5101;49.038;8.710;2024-03-02T12:43:45;2.05;;;1.20;;
10122;SDS011;5101;49.038;8.710;2024-03-02T12:46:11;2.70;;;0.90;;
10122;SDS011;5101;49.038;8.710;2024-03-02T12:48:37;1.67;;;1.00;;
10122;SDS011;5101;49.038;8.710;2024-03-02T12:51:05;2.22;;;0.98;;
10122;SDS011;5101;49.038;8.710;2024-03-02T12:53:31;1.50;;;1.40;;
10122;SDS011;5101;49.038;8.710;2024-03-02T12:55:57;2.92;;;0.88;;
10122;SDS011;5101;49.038;8.710;2024-03-02T12:58:23;1.48;;;1.08;;
10122;SDS011;5101;49.038;8.710;2024-03-02T13:00:48;1.00;;;1.00;;
10122;SDS011;5101;49.038;8.710;2024-03-02T13:03:14;1.60;;;1.00;;
10122;SDS011;5101;49.038;8.710;2024-03-02T13:05:47;1.52;;;0.80;;
10122;SDS011;5101;49.038;8.710;2024-03-02T13:08:14;0.93;;;0.93;;
10122;SDS011;5101;49.038;8.710;2024-03-02T13:10:40;1.35;;;0.93;;
10122;SDS011;5101;49.038;8.710;2024-03-02T13:13:06;1.10;;;1.10;;
10122;SDS011;5101;49.038;8.710;2024-03-02T13:15:32;2.45;;;1.15;;
10122;SDS011;5101;49.038;8.710;2024-03-02T13:17:58;6.47;;;1.45;;
10122;SDS011;5101;49.038;8.710;2024-03-02T13:20:29;0.90;;;0.85;;
10122;SDS011;5101;49.038;8.710;2024-03-02T13:22:56;1.00;;;1.00;;
10122;SDS011;5101;49.038;8.710;2024-03-02T13:25:22;5.05;;;1.30;;
10122;SDS011;5101;49.038;8.710;2024-03-02T13:27:47;1.58;;;1.20;;
10122;SDS011;5101;49.038;8.710;2024-03-02T13:30:13;1.38;;;1.27;;
10122;SDS011;5101;49.038;8.710;2024-03-02T13:32:38;0.95;;;0.95;;
10122;SDS011;5101;49.038;8.710;2024-03-02T13:35:04;1.05;;;1.00;;
10122;SDS011;5101;49.038;8.710;2024-03-02T13:37:30;1.25;;;1.15;;
10122;SDS011;5101;49.038;8.710;2024-03-02T13:39:55;3.50;;;1.00;;
10122;SDS011;5101;49.038;8.710;2024-03-02T13:42:21;0.80;;;0.80;;
10122;SDS011;5101;49.038;8.710;2024-03-02T13:44:46;0.70;;;0.70;;
10122;SDS011;5101;49.038;8.710;2024-03-02T13:47:14;1.95;;;0.70;;
10122;SDS011;5101;49.038;8.710;2024-03-02T13:49:40;1.83;;;0.90;;
10122;SDS011;5101;49.038;8.710;2024-03-02T13:52:10;0.80;;;0.80;;
10122;SDS011;5101;49.038;8.710;2024-03-02T13:54:38;0.82;;;0.82;;
10122;SDS011;5101;49.038;8.710;2024-03-02T13:57:07;3.33;;;0.88;;
10122;SDS011;5101;49.038;8.710;2024-03-02T13:59:33;1.13;;;0.90;;
10122;SDS011;5101;49.038;8.710;2024-03-02T14:02:00;0.68;;;0.68;;
10122;SDS011;5101;49.038;8.710;2024-03-02T14:04:30;4.13;;;1.00;;
10122;SDS011;5101;49.038;8.710;2024-03-02T14:06:56;0.75;;;0.70;;
10122;SDS011;5101;49.038;8.710;2024-03-02T14:09:22;0.88;;;0.77;;
10122;SDS011;5101;49.038;8.710;2024-03-02T14:11:49;0.73;;;0.73;;
10122;SDS011;5101;49.038;8.710;2024-03-02T14:14:15;0.80;;;0.80;;
10122;SDS011;5101;49.038;8.710;2024-03-02T14:16:40;0.80;;;0.80;;
10122;SDS011;5101;49.038;8.710;2024-03-02T14:19:06;1.00;;;0.90;;
10122;SDS011;5101;49.038;8.710;2024-03-02T14:21:31;1.08;;;0.80;;
10122;SDS011;5101;49.038;8.710;2024-03-02T14:23:57;1.40;;;0.60;;
10122;SDS011;5101;49.038;8.710;2024-03-02T14:26:22;0.57;;;0.45;;
10122;SDS011;5101;49.038;8.710;2024-03-02T14:28:48;2.05;;;0.50;;
10122;SDS011;5101;49.038;8.710;2024-03-02T14:31:13;0.90;;;0.52;;
10122;SDS011;5101;49.038;8.710;2024-03-02T14:33:39;0.30;;;0.30;;
10122;SDS011;5101;49.038;8.710;2024-03-02T14:36:05;3.40;;;1.10;;
10122;SDS011;5101;49.038;8.710;2024-03-02T14:38:31;0.70;;;0.43;;
10122;SDS011;5101;49.038;8.710;2024-03-02T14:40:56;0.40;;;0.40;;
10122;SDS011;5101;49.038;8.710;2024-03-02T14:43:22;2.88;;;0.70;;
10122;SDS011;5101;49.038;8.710;2024-03-02T14:45:48;0.50;;;0.40;;
10122;SDS011;5101;49.038;8.710;2024-03-02T14:48:14;1.80;;;0.50;;
10122;SDS011;5101;49.038;8.710;2024-03-02T14:50:39;2.88;;;0.60;;
10122;SDS011;5101;49.038;8.710;2024-03-02T14:53:05;0.50;;;0.47;;
10122;SDS011;5101;49.038;8.710;2024-03-02T14:55:32;1.20;;;0.43;;
10122;SDS011;5101;49.038;8.710;2024-03-02T14:57:59;0.30;;;0.30;;
10122;SDS011;5101;49.038;8.710;2024-03-02T15:00:24;0.28;;;0.28;;
10122;SDS011;5101;49.038;8.710;2024-03-02T15:02:50;0.45;;;0.30;;